createdAt,value
2019-05-14T00:00:53.813Z,0.00
2019-05-14T00:01:53.805Z,0.00
2019-05-14T00:02:53.788Z,0.00
2019-05-14T00:03:53.777Z,0.00
2019-05-14T00:04:53.765Z,0.00
2019-05-14T00:05:53.753Z,0.00
2019-05-14T00:06:53.740Z,0.00
2019-05-14T00:07:53.728Z,0.00
2019-05-14T00:08:53.766Z,0.00
2019-05-14T00:09:53.704Z,0.00
2019-05-14T00:10:53.691Z,0.00
2019-05-14T00:11:53.680Z,0.00
2019-05-14T00:12:53.667Z,0.00
2019-05-14T00:13:53.657Z,0.00
2019-05-14T00:14:53.649Z,0.00
2019-05-14T00:15:53.631Z,0.00
2019-05-14T00:16:53.621Z,0.00
2019-05-14T00:17:53.607Z,0.00
2019-05-14T00:18:53.644Z,0.00
2019-05-14T00:20:06.216Z,0.00
2019-05-14T00:20:53.571Z,0.00
2019-05-14T00:21:53.559Z,0.00
2019-05-14T00:22:53.546Z,0.00
2019-05-14T00:23:53.534Z,0.00
2019-05-14T00:24:53.523Z,0.00
2019-05-14T00:25:53.511Z,0.00
2019-05-14T00:26:53.498Z,0.00
2019-05-14T00:27:53.485Z,0.00
2019-05-14T00:28:53.474Z,0.00
2019-05-14T00:29:53.461Z,0.00
2019-05-14T00:30:53.448Z,0.00
2019-05-14T00:31:53.436Z,0.00
2019-05-14T00:32:53.426Z,0.00
2019-05-14T00:33:53.412Z,0.00
2019-05-14T00:34:53.399Z,0.00
2019-05-14T00:35:53.387Z,0.00
2019-05-14T00:36:53.376Z,0.00
2019-05-14T00:37:53.364Z,0.00
2019-05-14T00:38:53.356Z,0.00
2019-05-14T00:39:53.340Z,0.00
2019-05-14T00:40:53.335Z,0.00
2019-05-14T00:41:53.316Z,0.00
2019-05-14T00:42:53.481Z,0.00
2019-05-14T00:43:53.294Z,0.00
2019-05-14T00:44:57.768Z,0.00
2019-05-14T00:45:53.268Z,0.00
2019-05-14T00:46:53.254Z,0.00
2019-05-14T00:47:53.245Z,0.00
2019-05-14T00:48:53.233Z,0.00
2019-05-14T00:49:53.219Z,0.00
2019-05-14T00:50:53.206Z,0.00
2019-05-14T00:51:53.195Z,0.00
2019-05-14T00:52:53.182Z,0.00
2019-05-14T00:53:53.170Z,0.00
2019-05-14T00:54:53.157Z,0.00
2019-05-14T00:55:53.145Z,0.00
2019-05-14T00:56:53.133Z,0.00
2019-05-14T00:57:53.124Z,0.00
2019-05-14T00:58:53.162Z,0.00
2019-05-14T00:59:53.095Z,0.00
2019-05-14T01:00:53.089Z,0.00
2019-05-14T01:01:53.078Z,0.00
2019-05-14T01:02:53.058Z,0.00
2019-05-14T01:03:53.050Z,0.00
2019-05-14T01:04:53.034Z,0.00
2019-05-14T01:05:53.023Z,0.00
2019-05-14T01:06:53.010Z,0.00
2019-05-14T01:07:53.004Z,0.00
2019-05-14T01:08:52.987Z,0.00
2019-05-14T01:09:52.973Z,0.00
2019-05-14T01:10:52.961Z,0.00
2019-05-14T01:11:52.947Z,0.00
2019-05-14T01:12:52.935Z,0.00
2019-05-14T01:13:52.924Z,0.00
2019-05-14T01:15:06.668Z,0.00
2019-05-14T01:15:52.898Z,0.00
2019-05-14T01:16:52.887Z,0.00
2019-05-14T01:17:52.874Z,0.00
2019-05-14T01:18:52.862Z,0.00
2019-05-14T01:19:52.852Z,0.00
2019-05-14T01:20:52.842Z,0.00
2019-05-14T01:21:52.824Z,0.00
2019-05-14T01:22:52.811Z,0.00
2019-05-14T01:23:52.799Z,0.00
2019-05-14T01:24:52.787Z,0.00
2019-05-14T01:25:52.775Z,0.00
2019-05-14T01:26:52.761Z,0.00
2019-05-14T01:27:52.752Z,0.00
2019-05-14T01:28:52.737Z,0.00
2019-05-14T01:29:52.725Z,0.00
2019-05-14T01:30:52.713Z,0.00
2019-05-14T01:31:52.700Z,0.00
2019-05-14T01:32:52.690Z,0.00
2019-05-14T01:33:52.675Z,0.00
2019-05-14T01:34:52.662Z,0.00
2019-05-14T01:35:52.650Z,0.00
2019-05-14T01:36:53.014Z,0.00
2019-05-14T01:37:52.633Z,0.00
2019-05-14T01:38:52.612Z,0.00
2019-05-14T01:39:52.651Z,0.00
2019-05-14T01:40:52.736Z,0.00
2019-05-14T01:41:52.577Z,0.00
2019-05-14T01:42:52.563Z,0.00
2019-05-14T01:43:52.550Z,0.00
2019-05-14T01:44:52.538Z,0.00
2019-05-14T01:45:52.695Z,0.00
2019-05-14T01:46:52.514Z,0.00
2019-05-14T01:47:52.503Z,0.00
2019-05-14T01:48:52.487Z,0.00
2019-05-14T01:49:52.529Z,0.00
2019-05-14T01:50:52.465Z,0.00
2019-05-14T01:51:52.450Z,0.00
2019-05-14T01:52:52.439Z,0.00
2019-05-14T01:53:52.425Z,0.00
2019-05-14T01:54:52.411Z,0.00
2019-05-14T01:55:52.402Z,0.00
2019-05-14T01:56:52.390Z,0.00
2019-05-14T01:57:52.376Z,0.00
2019-05-14T01:58:52.486Z,0.00
2019-05-14T01:59:52.399Z,0.00
2019-05-14T02:00:52.557Z,0.00
2019-05-14T02:01:52.325Z,0.00
2019-05-14T02:02:52.581Z,0.00
2019-05-14T02:03:52.299Z,0.00
2019-05-14T02:04:52.286Z,0.00
2019-05-14T02:05:52.316Z,0.00
2019-05-14T02:06:52.260Z,0.00
2019-05-14T02:07:52.715Z,0.00
2019-05-14T02:08:52.236Z,0.00
2019-05-14T02:09:52.222Z,0.00
2019-05-14T02:10:52.756Z,0.00
2019-05-14T02:11:52.202Z,0.00
2019-05-14T02:12:52.184Z,0.00
2019-05-14T02:13:52.175Z,0.00
2019-05-14T02:14:52.159Z,0.00
2019-05-14T02:15:52.244Z,0.00
2019-05-14T02:16:52.135Z,0.00
2019-05-14T02:17:52.131Z,0.00
2019-05-14T02:18:52.377Z,0.00
2019-05-14T02:19:52.095Z,0.00
2019-05-14T02:20:52.331Z,0.00
2019-05-14T02:21:52.070Z,0.00
2019-05-14T02:22:52.535Z,0.00
2019-05-14T02:23:52.042Z,0.00
2019-05-14T02:24:52.192Z,0.00
2019-05-14T02:25:52.044Z,0.00
2019-05-14T02:26:52.004Z,0.00
2019-05-14T02:27:52.122Z,0.00
2019-05-14T02:28:51.979Z,0.00
2019-05-14T02:29:52.105Z,0.00
2019-05-14T02:30:58.126Z,0.00
2019-05-14T02:31:51.938Z,0.00
2019-05-14T02:32:51.930Z,0.00
2019-05-14T02:33:51.946Z,0.00
2019-05-14T02:34:51.900Z,0.00
2019-05-14T02:35:51.902Z,0.00
2019-05-14T02:36:51.874Z,0.00
2019-05-14T02:37:51.864Z,0.00
2019-05-14T02:38:51.847Z,0.00
2019-05-14T02:39:51.835Z,0.00
2019-05-14T02:40:51.929Z,0.00
2019-05-14T02:41:51.808Z,0.00
2019-05-14T02:42:51.794Z,0.00
2019-05-14T02:43:51.782Z,0.00
2019-05-14T02:44:51.769Z,0.00
2019-05-14T02:46:09.040Z,0.00
2019-05-14T02:46:51.770Z,0.00
2019-05-14T02:47:51.728Z,0.00
2019-05-14T02:48:51.720Z,0.00
2019-05-14T02:49:51.704Z,0.00
2019-05-14T02:50:51.703Z,0.00
2019-05-14T02:51:51.678Z,0.00
2019-05-14T02:52:51.669Z,0.00
2019-05-14T02:53:51.666Z,0.00
2019-05-14T02:54:51.637Z,0.00
2019-05-14T02:55:51.629Z,0.00
2019-05-14T02:56:51.622Z,0.00
2019-05-14T02:57:51.615Z,0.00
2019-05-14T02:58:51.598Z,0.00
2019-05-14T02:59:51.588Z,0.00
2019-05-14T03:00:51.623Z,0.00
2019-05-14T03:01:51.558Z,0.00
2019-05-14T03:02:51.540Z,0.00
2019-05-14T03:03:51.528Z,0.00
2019-05-14T03:04:51.506Z,0.00
2019-05-14T03:05:51.493Z,0.00
2019-05-14T03:06:51.488Z,0.00
2019-05-14T03:07:51.477Z,0.00
2019-05-14T03:08:51.454Z,0.00
2019-05-14T03:09:51.443Z,0.00
2019-05-14T03:10:51.437Z,0.00
2019-05-14T03:11:51.412Z,0.00
2019-05-14T03:12:51.418Z,0.00
2019-05-14T03:13:51.388Z,0.00
2019-05-14T03:14:51.373Z,0.00
2019-05-14T03:15:51.361Z,0.00
2019-05-14T03:16:51.347Z,0.00
2019-05-14T03:17:51.338Z,0.00
2019-05-14T03:18:51.324Z,0.00
2019-05-14T03:19:51.308Z,0.00
2019-05-14T03:20:51.292Z,0.00
2019-05-14T03:21:51.280Z,0.00
2019-05-14T03:23:03.245Z,0.00
2019-05-14T03:23:51.253Z,0.00
2019-05-14T03:24:51.242Z,0.00
2019-05-14T03:25:51.228Z,0.00
2019-05-14T03:26:51.213Z,0.00
2019-05-14T03:27:51.204Z,0.00
2019-05-14T03:28:51.187Z,0.00
2019-05-14T03:29:51.173Z,0.00
2019-05-14T03:30:52.830Z,0.00
2019-05-14T03:31:53.043Z,0.00
2019-05-14T03:32:52.991Z,0.00
2019-05-14T03:33:52.855Z,0.00
2019-05-14T03:34:53.199Z,0.00
2019-05-14T03:35:58.836Z,0.00
2019-05-14T03:36:53.151Z,0.00
2019-05-14T03:37:51.067Z,0.00
2019-05-14T03:38:51.053Z,0.00
2019-05-14T03:39:51.046Z,0.00
2019-05-14T03:40:51.027Z,5.63
2019-05-14T03:41:51.015Z,5.63
2019-05-14T03:42:51.000Z,5.63
2019-05-14T03:43:50.986Z,5.63
2019-05-14T03:44:50.975Z,5.63
2019-05-14T03:45:50.963Z,5.63
2019-05-14T03:46:55.055Z,5.63
2019-05-14T03:47:50.942Z,11.25
2019-05-14T03:48:50.927Z,11.25
2019-05-14T03:49:50.907Z,11.25
2019-05-14T03:50:50.897Z,11.25
2019-05-14T03:51:50.880Z,11.25
2019-05-14T03:52:50.866Z,11.25
2019-05-14T03:54:00.977Z,16.88
2019-05-14T03:54:50.843Z,16.88
2019-05-14T03:55:50.883Z,16.88
2019-05-14T03:56:50.817Z,16.88
2019-05-14T03:57:50.800Z,16.88
2019-05-14T03:58:50.792Z,22.50
2019-05-14T03:59:50.839Z,22.50
2019-05-14T04:00:51.082Z,22.50
2019-05-14T04:01:51.385Z,22.50
2019-05-14T04:02:50.751Z,28.13
2019-05-14T04:03:50.765Z,28.13
2019-05-14T04:04:50.708Z,28.13
2019-05-14T04:05:50.694Z,28.13
2019-05-14T04:06:50.681Z,33.75
2019-05-14T04:07:50.683Z,33.75
2019-05-14T04:08:50.652Z,33.75
2019-05-14T04:09:50.641Z,33.75
2019-05-14T04:10:54.161Z,39.38
2019-05-14T04:11:50.611Z,39.38
2019-05-14T04:12:50.599Z,39.38
2019-05-14T04:13:50.593Z,45.00
2019-05-14T04:14:50.575Z,45.00
2019-05-14T04:15:50.564Z,45.00
2019-05-14T04:17:01.399Z,45.00
2019-05-14T04:17:50.550Z,50.63
2019-05-14T04:18:50.672Z,50.63
2019-05-14T04:19:50.510Z,50.63
2019-05-14T04:20:50.492Z,56.25
2019-05-14T04:21:50.482Z,56.25
2019-05-14T04:22:50.465Z,56.25
2019-05-14T04:23:51.341Z,56.25
2019-05-14T04:24:50.437Z,61.88
2019-05-14T04:25:50.431Z,61.88
2019-05-14T04:27:02.367Z,61.88
2019-05-14T04:27:50.419Z,61.88
2019-05-14T04:28:50.488Z,67.50
2019-05-14T04:29:50.374Z,67.50
2019-05-14T04:30:50.359Z,67.50
2019-05-14T04:31:50.541Z,73.13
2019-05-14T04:32:50.791Z,73.13
2019-05-14T04:33:50.412Z,73.13
2019-05-14T04:34:50.303Z,78.75
2019-05-14T04:35:50.297Z,78.75
2019-05-14T04:36:50.700Z,78.75
2019-05-14T04:37:50.262Z,78.75
2019-05-14T04:38:54.849Z,84.38
2019-05-14T04:39:50.754Z,84.38
2019-05-14T04:40:50.223Z,84.38
2019-05-14T04:41:50.209Z,90.00
2019-05-14T04:42:50.590Z,90.00
2019-05-14T04:43:50.605Z,90.00
2019-05-14T04:44:50.831Z,95.63
2019-05-14T04:45:50.168Z,95.63
2019-05-14T04:46:50.145Z,95.63
2019-05-14T04:47:50.252Z,95.63
2019-05-14T04:48:51.137Z,95.63
2019-05-14T04:49:50.691Z,101.25
2019-05-14T04:50:50.088Z,101.25
2019-05-14T04:51:50.555Z,101.25
2019-05-14T04:52:50.063Z,106.88
2019-05-14T04:53:50.533Z,106.88
2019-05-14T04:54:50.349Z,106.88
2019-05-14T04:55:50.028Z,106.88
2019-05-14T04:56:51.002Z,112.50
2019-05-14T04:57:50.418Z,112.50
2019-05-14T04:58:50.476Z,112.50
2019-05-14T04:59:50.015Z,112.50
2019-05-14T05:00:50.239Z,118.13
2019-05-14T05:01:49.943Z,118.13
2019-05-14T05:02:50.205Z,118.13
2019-05-14T05:03:50.659Z,118.13
2019-05-14T05:04:50.908Z,123.75
2019-05-14T05:05:50.252Z,123.75
2019-05-14T05:06:50.212Z,123.75
2019-05-14T05:07:49.869Z,129.38
2019-05-14T05:08:50.344Z,129.38
2019-05-14T05:09:50.482Z,129.38
2019-05-14T05:10:49.886Z,129.38
2019-05-14T05:11:50.152Z,135.00
2019-05-14T05:12:49.798Z,135.00
2019-05-14T05:13:49.791Z,135.00
2019-05-14T05:14:49.772Z,135.00
2019-05-14T05:15:49.759Z,140.63
2019-05-14T05:16:49.746Z,140.63
2019-05-14T05:17:52.869Z,140.63
2019-05-14T05:18:49.719Z,146.25
2019-05-14T05:19:51.604Z,146.25
2019-05-14T05:20:50.709Z,146.25
2019-05-14T05:21:49.681Z,151.88
2019-05-14T05:22:49.682Z,146.25
2019-05-14T05:23:49.655Z,151.88
2019-05-14T05:24:49.644Z,151.88
2019-05-14T05:25:49.629Z,157.50
2019-05-14T05:26:49.616Z,157.50
2019-05-14T05:27:49.608Z,157.50
2019-05-14T05:29:02.301Z,163.13
2019-05-14T05:29:49.579Z,163.13
2019-05-14T05:30:49.567Z,163.13
2019-05-14T05:31:49.552Z,168.75
2019-05-14T05:32:49.690Z,168.75
2019-05-14T05:33:49.526Z,168.75
2019-05-14T05:34:49.513Z,174.38
2019-05-14T05:35:49.505Z,174.38
2019-05-14T05:36:49.488Z,180.00
2019-05-14T05:37:49.475Z,180.00
2019-05-14T05:38:49.461Z,185.63
2019-05-14T05:39:49.450Z,185.63
2019-05-14T05:40:49.437Z,185.63
2019-05-14T05:41:49.433Z,185.63
2019-05-14T05:42:49.417Z,185.63
2019-05-14T05:43:49.398Z,191.25
2019-05-14T05:44:49.387Z,185.63
2019-05-14T05:45:49.373Z,191.25
2019-05-14T05:46:49.564Z,191.25
2019-05-14T05:47:57.831Z,191.25
2019-05-14T05:48:49.335Z,202.50
2019-05-14T05:49:49.324Z,196.88
2019-05-14T05:50:49.310Z,208.13
2019-05-14T05:51:49.298Z,208.13
2019-05-14T05:52:51.711Z,213.75
2019-05-14T05:53:49.273Z,213.75
2019-05-14T05:54:49.261Z,213.75
2019-05-14T05:55:49.248Z,219.38
2019-05-14T05:56:49.236Z,225.00
2019-05-14T05:57:49.411Z,219.38
2019-05-14T05:58:49.272Z,225.00
2019-05-14T05:59:49.202Z,225.00
2019-05-14T06:00:49.876Z,230.63
2019-05-14T06:01:50.240Z,230.63
2019-05-14T06:02:49.163Z,236.25
2019-05-14T06:03:49.458Z,236.25
2019-05-14T06:04:49.139Z,236.25
2019-05-14T06:05:49.373Z,236.25
2019-05-14T06:06:49.114Z,236.25
2019-05-14T06:07:49.103Z,236.25
2019-05-14T06:08:49.532Z,236.25
2019-05-14T06:09:49.078Z,241.88
2019-05-14T06:10:49.175Z,241.88
2019-05-14T06:11:49.055Z,241.88
2019-05-14T06:12:49.249Z,247.50
2019-05-14T06:13:49.037Z,253.13
2019-05-14T06:14:49.021Z,253.13
2019-05-14T06:15:52.171Z,258.75
2019-05-14T06:16:49.046Z,258.75
2019-05-14T06:17:49.326Z,264.38
2019-05-14T06:18:48.971Z,264.38
2019-05-14T06:19:48.960Z,264.38
2019-05-14T06:20:49.500Z,264.38
2019-05-14T06:21:49.306Z,264.38
2019-05-14T06:22:49.084Z,270.00
2019-05-14T06:23:49.267Z,270.00
2019-05-14T06:24:48.906Z,275.63
2019-05-14T06:25:49.335Z,281.25
2019-05-14T06:26:49.100Z,292.50
2019-05-14T06:27:48.868Z,309.38
2019-05-14T06:28:49.528Z,320.63
2019-05-14T06:29:49.117Z,343.13
2019-05-14T06:30:48.835Z,360.00
2019-05-14T06:31:49.563Z,382.50
2019-05-14T06:32:48.862Z,393.75
2019-05-14T06:33:49.066Z,405.00
2019-05-14T06:34:49.183Z,416.25
2019-05-14T06:35:48.811Z,427.50
2019-05-14T06:36:48.911Z,433.13
2019-05-14T06:37:49.117Z,433.13
2019-05-14T06:38:49.318Z,433.13
2019-05-14T06:39:48.734Z,421.88
2019-05-14T06:40:49.077Z,421.88
2019-05-14T06:41:49.154Z,433.13
2019-05-14T06:42:48.722Z,444.38
2019-05-14T06:43:48.979Z,444.38
2019-05-14T06:44:49.291Z,472.50
2019-05-14T06:45:49.543Z,461.25
2019-05-14T06:46:52.590Z,466.88
2019-05-14T06:47:48.870Z,466.88
2019-05-14T06:48:48.906Z,478.13
2019-05-14T06:49:49.013Z,523.13
2019-05-14T06:50:50.486Z,618.75
2019-05-14T06:51:49.069Z,641.25
2019-05-14T06:52:49.214Z,568.13
2019-05-14T06:53:49.769Z,540.00
2019-05-14T06:54:49.668Z,562.50
2019-05-14T06:55:48.566Z,579.38
2019-05-14T06:56:48.902Z,607.50
2019-05-14T06:57:48.546Z,618.75
2019-05-14T06:58:49.239Z,579.38
2019-05-14T06:59:48.607Z,585.00
2019-05-14T07:00:49.522Z,601.88
2019-05-14T07:01:49.102Z,624.38
2019-05-14T07:02:49.147Z,652.50
2019-05-14T07:03:49.139Z,691.88
2019-05-14T07:04:48.684Z,725.63
2019-05-14T07:05:49.285Z,793.13
2019-05-14T07:06:48.704Z,1074.38
2019-05-14T07:07:49.278Z,1299.38
2019-05-14T07:08:52.141Z,1203.75
2019-05-14T07:09:48.998Z,1350.00
2019-05-14T07:10:48.718Z,1445.63
2019-05-14T07:11:49.228Z,1434.38
2019-05-14T07:12:49.955Z,1479.38
2019-05-14T07:13:49.223Z,1743.75
2019-05-14T07:14:48.417Z,1890.00
2019-05-14T07:15:48.982Z,2098.13
2019-05-14T07:16:48.673Z,1788.75
2019-05-14T07:17:48.921Z,1411.88
2019-05-14T07:18:52.870Z,2019.38
2019-05-14T07:19:49.139Z,1912.50
2019-05-14T07:20:48.664Z,2047.50
2019-05-14T07:21:49.172Z,1839.38
2019-05-14T07:22:48.488Z,1923.75
2019-05-14T07:23:48.946Z,1957.50
2019-05-14T07:24:49.764Z,1794.38
2019-05-14T07:25:48.436Z,1861.88
2019-05-14T07:26:49.384Z,1873.13
2019-05-14T07:27:49.006Z,2131.88
2019-05-14T07:28:48.918Z,2109.38
2019-05-14T07:29:49.190Z,1653.75
2019-05-14T07:30:48.728Z,1462.50
2019-05-14T07:31:48.881Z,1800.00
2019-05-14T07:32:48.562Z,1760.63
2019-05-14T07:33:49.305Z,2058.75
2019-05-14T07:34:48.371Z,2272.50
2019-05-14T07:35:48.826Z,2182.50
2019-05-14T07:36:49.140Z,2205.00
2019-05-14T07:37:48.861Z,2238.75
2019-05-14T07:38:48.995Z,2401.88
2019-05-14T07:39:48.805Z,2587.50
2019-05-14T07:40:49.373Z,2165.63
2019-05-14T07:41:48.551Z,1890.00
2019-05-14T07:42:48.860Z,1636.88
2019-05-14T07:43:48.498Z,2413.13
2019-05-14T07:44:48.658Z,2317.50
2019-05-14T07:45:49.218Z,2385.00
2019-05-14T07:46:48.467Z,2283.75
2019-05-14T07:47:49.309Z,2379.38
2019-05-14T07:49:03.968Z,2216.25
2019-05-14T07:49:49.034Z,2199.38
2019-05-14T07:50:51.870Z,1777.50
2019-05-14T07:51:48.354Z,1569.38
2019-05-14T07:52:49.711Z,1485.00
2019-05-14T07:53:48.999Z,1760.63
2019-05-14T07:54:48.328Z,1963.13
2019-05-14T07:55:49.280Z,1771.88
2019-05-14T07:56:50.901Z,1631.25
2019-05-14T07:57:48.324Z,1743.75
2019-05-14T07:58:49.183Z,1901.25
2019-05-14T07:59:48.566Z,1451.25
2019-05-14T08:00:49.242Z,1456.88
2019-05-14T08:01:49.075Z,669.38
2019-05-14T08:02:49.074Z,675.00
2019-05-14T08:03:48.803Z,1985.63
2019-05-14T08:04:48.718Z,1985.63
2019-05-14T08:05:48.421Z,1676.25
2019-05-14T08:06:48.751Z,2216.25
2019-05-14T08:07:48.226Z,900.00
2019-05-14T08:08:49.396Z,956.25
2019-05-14T08:09:48.240Z,1805.63
2019-05-14T08:10:48.835Z,2019.38
2019-05-14T08:11:48.227Z,1974.38
2019-05-14T08:12:48.605Z,2171.25
2019-05-14T08:13:49.378Z,1873.13
2019-05-14T08:15:08.711Z,2030.63
2019-05-14T08:15:48.998Z,1338.75
2019-05-14T08:16:48.873Z,2598.75
2019-05-14T08:17:48.406Z,2407.50
2019-05-14T08:18:48.688Z,1743.75
2019-05-14T08:19:49.167Z,2311.88
2019-05-14T08:20:48.634Z,826.88
2019-05-14T08:21:48.298Z,838.13
2019-05-14T08:22:49.052Z,2801.25
2019-05-14T08:23:48.352Z,2722.50
2019-05-14T08:24:48.897Z,2812.50
2019-05-14T08:25:48.317Z,2677.50
2019-05-14T08:26:48.721Z,1141.88
2019-05-14T08:27:48.337Z,2435.63
2019-05-14T08:28:48.840Z,1417.50
2019-05-14T08:29:48.649Z,2666.25
2019-05-14T08:30:49.164Z,2548.13
2019-05-14T08:31:48.738Z,2795.63
2019-05-14T08:32:48.970Z,2334.38
2019-05-14T08:33:48.766Z,2936.25
2019-05-14T08:34:48.284Z,2913.75
2019-05-14T08:35:48.840Z,3076.88
2019-05-14T08:36:48.442Z,2745.00
2019-05-14T08:37:49.255Z,3251.25
2019-05-14T08:38:49.959Z,2998.13
2019-05-14T08:39:48.744Z,3048.75
2019-05-14T08:40:48.917Z,2452.50
2019-05-14T08:41:55.808Z,2452.50
2019-05-14T08:42:49.006Z,2531.25
2019-05-14T08:43:48.908Z,2700.00
2019-05-14T08:44:51.217Z,2795.63
2019-05-14T08:45:48.728Z,2188.13
2019-05-14T08:46:48.612Z,3127.50
2019-05-14T08:47:48.402Z,3003.75
2019-05-14T08:48:49.544Z,2660.63
2019-05-14T08:49:50.827Z,2452.50
2019-05-14T08:50:48.329Z,2536.88
2019-05-14T08:51:49.494Z,2722.50
2019-05-14T08:52:48.461Z,3037.50
2019-05-14T08:53:50.325Z,3206.25
2019-05-14T08:54:50.598Z,3223.13
2019-05-14T08:55:48.863Z,3223.13
2019-05-14T08:56:49.036Z,2846.25
2019-05-14T08:57:48.898Z,2851.88
2019-05-14T08:58:49.513Z,3009.38
2019-05-14T08:59:48.820Z,2587.50
2019-05-14T09:00:48.429Z,2896.88
2019-05-14T09:01:58.600Z,2812.50
2019-05-14T09:02:48.676Z,2520.00
2019-05-14T09:03:49.235Z,2885.63
2019-05-14T09:04:53.720Z,2986.88
2019-05-14T09:05:49.152Z,3015.00
2019-05-14T09:06:48.895Z,2581.88
2019-05-14T09:07:49.028Z,2981.25
2019-05-14T09:08:49.498Z,2784.38
2019-05-14T09:09:48.814Z,3240.00
2019-05-14T09:10:49.681Z,3453.75
2019-05-14T09:11:50.360Z,2812.50
2019-05-14T09:12:49.123Z,3571.88
2019-05-14T09:13:49.069Z,3611.25
2019-05-14T09:14:48.512Z,939.38
2019-05-14T09:15:48.980Z,933.75
2019-05-14T09:16:50.996Z,860.63
2019-05-14T09:17:48.780Z,3279.38
2019-05-14T09:18:49.192Z,3211.88
2019-05-14T09:20:48.821Z,3442.50
2019-05-14T09:21:49.575Z,1265.63
2019-05-14T09:22:49.091Z,1068.75
2019-05-14T09:23:48.388Z,3605.63
2019-05-14T09:24:49.151Z,3498.75
2019-05-14T09:25:52.808Z,866.25
2019-05-14T09:26:48.417Z,3470.63
2019-05-14T09:27:49.260Z,1423.13
2019-05-14T09:28:48.489Z,3780.00
2019-05-14T09:29:48.538Z,2041.88
2019-05-14T09:30:48.709Z,1310.63
2019-05-14T09:31:49.464Z,922.50
2019-05-14T09:32:49.249Z,1125.00
2019-05-14T09:33:49.445Z,3667.50
2019-05-14T09:34:48.821Z,3639.38
2019-05-14T09:35:49.339Z,3645.00
2019-05-14T09:36:48.982Z,3054.38
2019-05-14T09:37:51.353Z,1957.50
2019-05-14T09:38:49.096Z,3465.00
2019-05-14T09:39:48.827Z,3577.50
2019-05-14T09:40:49.023Z,1085.63
2019-05-14T09:41:48.455Z,1625.63
2019-05-14T09:42:50.063Z,2739.38
2019-05-14T09:43:48.884Z,2986.88
2019-05-14T09:44:48.996Z,3948.75
2019-05-14T09:45:48.310Z,1513.13
2019-05-14T09:46:50.027Z,3661.88
2019-05-14T09:47:50.658Z,1068.75
2019-05-14T09:48:48.773Z,2041.88
2019-05-14T09:49:49.044Z,3065.63
2019-05-14T09:50:48.972Z,3633.75
2019-05-14T09:51:48.864Z,3296.25
2019-05-14T09:52:49.369Z,680.63
2019-05-14T09:53:48.980Z,686.25
2019-05-14T09:54:49.673Z,871.88
2019-05-14T09:55:49.096Z,3566.25
2019-05-14T09:56:48.622Z,759.38
2019-05-14T09:57:49.140Z,624.38
2019-05-14T09:58:49.539Z,3729.38
2019-05-14T09:59:48.219Z,3566.25
2019-05-14T10:00:48.657Z,3521.25
2019-05-14T10:01:50.764Z,3487.50
2019-05-14T10:02:49.201Z,3476.25
2019-05-14T10:03:49.543Z,3538.13
2019-05-14T10:04:48.995Z,3645.00
2019-05-14T10:05:50.131Z,3611.25
2019-05-14T10:06:48.612Z,3566.25
2019-05-14T10:07:49.451Z,3498.75
2019-05-14T10:08:48.682Z,3431.25
2019-05-14T10:09:49.214Z,3588.75
2019-05-14T10:10:48.844Z,3645.00
2019-05-14T10:11:48.723Z,3510.00
2019-05-14T10:12:56.028Z,3740.63
2019-05-14T10:13:48.550Z,2486.25
2019-05-14T10:14:48.761Z,1957.50
2019-05-14T10:15:48.656Z,3566.25
2019-05-14T10:16:49.031Z,3560.63
2019-05-14T10:17:49.997Z,3639.38
2019-05-14T10:18:49.092Z,3706.88
2019-05-14T10:19:49.763Z,781.88
2019-05-14T10:20:49.468Z,776.25
2019-05-14T10:21:49.350Z,765.00
2019-05-14T10:22:48.355Z,658.13
2019-05-14T10:23:48.301Z,658.13
2019-05-14T10:24:48.301Z,3369.38
2019-05-14T10:25:48.307Z,3459.38
2019-05-14T10:26:49.168Z,3431.25
2019-05-14T10:27:48.662Z,3645.00
2019-05-14T10:28:48.638Z,3622.50
2019-05-14T10:29:48.374Z,3504.38
2019-05-14T10:30:49.066Z,3397.50
2019-05-14T10:31:48.693Z,3431.25
2019-05-14T10:32:49.276Z,3369.38
2019-05-14T10:33:48.748Z,3375.00
2019-05-14T10:34:48.691Z,3380.63
2019-05-14T10:35:48.646Z,3335.63
2019-05-14T10:36:48.342Z,3352.50
2019-05-14T10:37:48.353Z,3358.13
2019-05-14T10:38:48.353Z,3414.38
2019-05-14T10:39:48.359Z,3639.38
2019-05-14T10:40:48.366Z,1001.25
2019-05-14T10:41:48.376Z,1181.25
2019-05-14T10:42:49.487Z,3751.88
2019-05-14T10:43:49.705Z,3555.00
2019-05-14T10:44:48.391Z,3650.63
2019-05-14T10:45:49.379Z,1215.00
2019-05-14T10:46:48.405Z,832.50
2019-05-14T10:47:49.455Z,810.00
2019-05-14T10:48:48.413Z,3538.13
2019-05-14T10:49:48.419Z,3504.38
2019-05-14T10:50:58.995Z,3470.63
2019-05-14T10:51:48.427Z,3470.63
2019-05-14T10:52:49.037Z,3431.25
2019-05-14T10:53:49.052Z,3363.75
2019-05-14T10:54:55.882Z,1985.63
2019-05-14T10:55:48.658Z,646.88
2019-05-14T10:56:49.460Z,3228.75
2019-05-14T10:57:53.619Z,2880.00
2019-05-14T10:58:49.057Z,3543.75
2019-05-14T10:59:48.467Z,3633.75
2019-05-14T11:00:49.535Z,3442.50
2019-05-14T11:01:48.477Z,3538.13
2019-05-14T11:02:49.244Z,3678.75
2019-05-14T11:03:48.568Z,3690.00
2019-05-14T11:04:48.514Z,2947.50
2019-05-14T11:05:48.496Z,3667.50
2019-05-14T11:06:49.059Z,3408.75
2019-05-14T11:07:48.509Z,3420.00
2019-05-14T11:08:49.134Z,3476.25
2019-05-14T11:09:48.764Z,3465.00
2019-05-14T11:10:49.799Z,3543.75
2019-05-14T11:11:48.533Z,3577.50
2019-05-14T11:12:50.310Z,2103.75
2019-05-14T11:13:48.567Z,1580.63
2019-05-14T11:14:49.387Z,3965.63
2019-05-14T11:15:48.842Z,3870.00
2019-05-14T11:16:48.709Z,3397.50
2019-05-14T11:17:48.852Z,2964.38
2019-05-14T11:18:49.713Z,3622.50
2019-05-14T11:19:48.579Z,3690.00
2019-05-14T11:20:51.385Z,3555.00
2019-05-14T11:21:48.591Z,1181.25
2019-05-14T11:22:49.251Z,1068.75
2019-05-14T11:23:49.266Z,1265.63
2019-05-14T11:24:49.240Z,3397.50
2019-05-14T11:25:48.835Z,2790.00
2019-05-14T11:26:48.991Z,877.50
2019-05-14T11:27:49.369Z,2795.63
2019-05-14T11:28:49.272Z,1828.13
2019-05-14T11:29:49.259Z,1001.25
2019-05-14T11:30:49.482Z,1012.50
2019-05-14T11:31:48.747Z,1035.00
2019-05-14T11:32:49.292Z,1130.63
2019-05-14T11:33:49.721Z,3273.75
2019-05-14T11:34:48.640Z,3465.00
2019-05-14T11:35:48.639Z,2154.38
2019-05-14T11:36:49.715Z,3223.13
2019-05-14T11:37:48.643Z,3380.63
2019-05-14T11:38:50.728Z,3408.75
2019-05-14T11:39:48.894Z,3301.88
2019-05-14T11:40:49.499Z,3082.50
2019-05-14T11:41:49.240Z,3116.25
2019-05-14T11:42:49.457Z,3375.00
2019-05-14T11:43:49.495Z,3318.75
2019-05-14T11:44:48.904Z,1350.00
2019-05-14T11:45:48.741Z,2829.38
2019-05-14T11:46:56.480Z,3161.25
2019-05-14T11:47:48.995Z,3189.38
2019-05-14T11:48:49.178Z,3178.13
2019-05-14T11:49:49.424Z,3048.75
2019-05-14T11:50:49.331Z,3026.25
2019-05-14T11:52:00.542Z,3172.50
2019-05-14T11:52:48.702Z,3262.50
2019-05-14T11:53:49.629Z,3240.00
2019-05-14T11:54:49.350Z,3335.63
2019-05-14T11:55:50.323Z,3425.63
2019-05-14T11:56:48.725Z,3335.63
2019-05-14T11:57:48.730Z,3279.38
2019-05-14T11:58:48.736Z,3211.88
2019-05-14T11:59:48.742Z,3279.38
2019-05-14T12:00:48.756Z,3363.75
2019-05-14T12:01:49.400Z,3358.13
2019-05-14T12:02:48.761Z,3307.50
2019-05-14T12:03:50.504Z,3380.63
2019-05-14T12:04:48.789Z,3493.13
2019-05-14T12:05:49.728Z,3341.25
2019-05-14T12:06:48.790Z,1125.00
2019-05-14T12:07:48.794Z,3442.50
2019-05-14T12:08:48.801Z,2193.75
2019-05-14T12:09:48.808Z,3583.13
2019-05-14T12:10:48.812Z,3369.38
2019-05-14T12:11:48.818Z,1344.38
2019-05-14T12:12:49.207Z,3600.00
2019-05-14T12:13:48.989Z,1108.13
2019-05-14T12:14:48.834Z,3110.63
2019-05-14T12:15:48.865Z,765.00
2019-05-14T12:16:49.531Z,748.13
2019-05-14T12:17:50.966Z,995.63
2019-05-14T12:18:48.852Z,3330.00
2019-05-14T12:19:48.859Z,973.13
2019-05-14T12:20:49.846Z,883.13
2019-05-14T12:22:02.693Z,3352.50
2019-05-14T12:22:48.968Z,860.63
2019-05-14T12:23:48.871Z,1968.75
2019-05-14T12:24:49.389Z,3054.38
2019-05-14T12:25:49.267Z,3020.63
2019-05-14T12:26:49.158Z,2846.25
2019-05-14T12:27:49.732Z,3138.75
2019-05-14T12:28:49.525Z,3301.88
2019-05-14T12:29:49.768Z,3296.25
2019-05-14T12:30:49.142Z,1400.63
2019-05-14T12:31:50.679Z,3234.38
2019-05-14T12:32:50.134Z,3172.50
2019-05-14T12:33:49.051Z,3071.25
2019-05-14T12:34:49.081Z,3105.00
2019-05-14T12:35:49.512Z,3054.38
2019-05-14T12:36:49.413Z,3116.25